Hua Hin, Thailand
Current Conditions -  °F | °C
As of 12:00 AM on Monday 24 Nov 2014 (Local Time) from VTBU Reporting Station
Haze Haze  
Wind Chill: 26°   Ceiling: Unl
Heat Index: 28°   Visibility: 3mi
Dew Point: 23°   Wind: 0mph
Humidity: 83%   Direction: NA
Pressure: 29.85"   Gusts: NA
Location:  12.57°N, 99.95°E
Report Text: VTBU 231700Z 00000KT 5000 BR FEW020 SCT300 26/23 Q1011 A2986
Loading
Personal Weather Stations






























Interactive Weather Map New forecast layout! Learn more

10-Day Weather Forecast

Advertisements
Track Severe Weather on mobile